createdAt,value
2022-08-11T00:03:55.458Z,1.75
2022-08-11T00:06:37.926Z,1.67
2022-08-11T00:09:11.324Z,1.60
2022-08-11T00:11:48.862Z,1.73
2022-08-11T00:14:19.677Z,1.70
2022-08-11T00:16:55.219Z,1.70
2022-08-11T00:20:14.326Z,1.73
2022-08-11T00:22:20.639Z,1.65
2022-08-11T00:24:53.321Z,1.73
2022-08-11T00:27:35.504Z,1.73
2022-08-11T00:30:04.687Z,1.60
2022-08-11T00:32:32.643Z,1.90
2022-08-11T00:35:55.938Z,1.83
2022-08-11T00:37:51.812Z,1.50
2022-08-11T00:40:45.132Z,1.98
2022-08-11T00:43:50.553Z,1.35
2022-08-11T00:46:46.649Z,1.35
2022-08-11T00:49:50.567Z,1.73
2022-08-11T00:52:27.446Z,1.50
2022-08-11T00:55:05.421Z,1.77
2022-08-11T00:57:54.730Z,1.80
2022-08-11T01:00:24.125Z,1.65
2022-08-11T01:03:06.313Z,1.80
2022-08-11T01:05:58.309Z,1.50
2022-08-11T01:08:56.360Z,1.50
2022-08-11T01:11:55.974Z,1.60
2022-08-11T01:15:04.972Z,1.60
2022-08-11T01:18:00.922Z,1.70
2022-08-11T01:21:08.018Z,1.60
2022-08-11T01:23:59.076Z,1.70
2022-08-11T01:26:57.274Z,1.70
2022-08-11T01:29:42.922Z,1.60
2022-08-11T01:32:50.377Z,1.77
2022-08-11T01:35:44.718Z,1.60
2022-08-11T01:38:43.477Z,1.50
2022-08-11T01:41:49.385Z,1.60
2022-08-11T01:44:38.250Z,1.60
2022-08-11T01:47:54.370Z,1.40
2022-08-11T01:50:42.866Z,1.45
2022-08-11T01:53:37.149Z,1.63
2022-08-11T01:56:28.435Z,1.60
2022-08-11T01:59:23.343Z,1.50
2022-08-11T02:02:46.317Z,1.40
2022-08-11T02:05:42.713Z,1.70
2022-08-11T02:08:50.361Z,1.70
2022-08-11T02:11:37.480Z,1.50
2022-08-11T02:14:24.708Z,1.73
2022-08-11T02:17:15.021Z,1.42
2022-08-11T02:20:24.037Z,1.70
2022-08-11T02:24:04.075Z,1.52
2022-08-11T02:26:41.452Z,1.33
2022-08-11T02:29:26.100Z,1.55
2022-08-11T02:32:43.184Z,1.60
2022-08-11T02:35:43.253Z,1.42
2022-08-11T02:38:19.273Z,1.60
2022-08-11T02:40:54.129Z,1.55
2022-08-11T02:44:00.061Z,1.50
2022-08-11T02:46:32.669Z,1.60
2022-08-11T02:49:31.114Z,1.70
2022-08-11T02:52:14.538Z,1.55
2022-08-11T02:55:10.754Z,1.40
2022-08-11T02:58:31.990Z,1.45
2022-08-11T03:01:22.616Z,1.40
2022-08-11T03:04:08.408Z,1.30
2022-08-11T03:07:05.565Z,1.40
2022-08-11T03:10:22.565Z,1.30
2022-08-11T03:13:30.367Z,1.50
2022-08-11T03:16:16.214Z,1.35
2022-08-11T03:18:57.575Z,1.52
2022-08-11T03:22:03.617Z,1.70
2022-08-11T03:24:55.468Z,1.50
2022-08-11T03:28:03.675Z,1.67
2022-08-11T03:30:46.984Z,1.50
2022-08-11T03:33:48.446Z,1.20
2022-08-11T03:37:16.084Z,1.42
2022-08-11T03:39:56.204Z,1.70
2022-08-11T03:43:10.343Z,1.27
2022-08-11T03:46:04.352Z,1.30
2022-08-11T03:48:57.508Z,1.23
2022-08-11T03:51:51.776Z,1.27
2022-08-11T03:54:47.965Z,1.20
2022-08-11T03:57:45.860Z,1.10
2022-08-11T04:00:34.286Z,1.38
2022-08-11T04:03:31.051Z,1.40
2022-08-11T04:06:50.119Z,1.70
2022-08-11T04:09:57.259Z,1.30
2022-08-11T04:12:42.121Z,1.48
2022-08-11T04:15:49.978Z,1.30
2022-08-11T04:18:47.959Z,1.30
2022-08-11T04:21:27.073Z,1.30
2022-08-11T04:24:13.230Z,1.15
2022-08-11T04:27:15.209Z,1.60
2022-08-11T04:30:13.419Z,1.30
2022-08-11T04:33:35.365Z,1.10
2022-08-11T04:36:15.122Z,1.00
2022-08-11T04:39:23.250Z,1.40
2022-08-11T04:42:46.410Z,1.50
2022-08-11T04:45:34.647Z,1.15
2022-08-11T04:48:57.405Z,1.50
2022-08-11T04:51:49.399Z,1.30
2022-08-11T04:55:06.106Z,1.20
2022-08-11T04:58:20.643Z,1.38
2022-08-11T05:01:15.730Z,1.80
2022-08-11T05:04:28.948Z,1.70
2022-08-11T05:07:34.710Z,1.73
2022-08-11T05:10:47.815Z,1.83
2022-08-11T05:13:56.183Z,2.17
2022-08-11T05:16:48.362Z,2.22
2022-08-11T05:19:41.137Z,2.08
2022-08-11T05:22:30.348Z,1.85
2022-08-11T05:26:43.220Z,2.00
2022-08-11T05:29:19.341Z,2.00
2022-08-11T05:32:14.501Z,2.03
2022-08-11T05:34:54.944Z,2.00
2022-08-11T05:40:28.233Z,1.98
2022-08-11T05:43:22.413Z,2.22
2022-08-11T05:46:22.403Z,1.98
2022-08-11T05:49:09.652Z,2.15
2022-08-11T05:52:05.019Z,2.20
2022-08-11T05:55:05.992Z,2.00
2022-08-11T05:57:48.622Z,2.25
2022-08-11T06:00:20.718Z,2.10
2022-08-11T06:02:55.615Z,2.25
2022-08-11T06:05:25.129Z,2.20
2022-08-11T06:07:57.307Z,2.30
2022-08-11T06:10:37.032Z,2.13
2022-08-11T06:13:06.553Z,2.30
2022-08-11T06:15:43.901Z,2.20
2022-08-11T06:18:13.192Z,2.40
2022-08-11T06:20:49.442Z,2.25
2022-08-11T06:23:23.896Z,2.15
2022-08-11T06:25:53.543Z,2.30
2022-08-11T06:28:33.112Z,2.60
2022-08-11T06:31:02.745Z,2.38
2022-08-11T06:33:48.204Z,2.47
2022-08-11T06:36:21.306Z,2.28
2022-08-11T06:39:15.924Z,2.30
2022-08-11T06:41:49.475Z,2.08
2022-08-11T06:44:32.641Z,2.30
2022-08-11T06:47:11.237Z,2.25
2022-08-11T06:50:03.851Z,2.13
2022-08-11T06:52:36.695Z,2.15
2022-08-11T06:55:56.091Z,2.28
2022-08-11T06:58:49.971Z,2.20
2022-08-11T07:01:28.418Z,2.45
2022-08-11T07:04:09.180Z,2.25
2022-08-11T07:07:09.469Z,2.35
2022-08-11T07:10:48.858Z,2.30
2022-08-11T07:13:44.305Z,2.00
2022-08-11T07:16:25.825Z,2.17
2022-08-11T07:19:18.561Z,2.20
2022-08-11T07:22:06.313Z,1.90
2022-08-11T07:25:02.374Z,1.80
2022-08-11T07:28:01.406Z,1.90
2022-08-11T07:30:30.159Z,1.80
2022-08-11T07:33:01.088Z,1.80
2022-08-11T07:35:35.833Z,1.70
2022-08-11T07:38:07.920Z,1.52
2022-08-11T07:40:36.474Z,1.90
2022-08-11T07:43:07.186Z,1.80
2022-08-11T07:45:53.725Z,1.90
2022-08-11T07:48:40.231Z,1.70
2022-08-11T07:51:26.496Z,1.77
2022-08-11T07:54:03.106Z,1.65
2022-08-11T07:56:54.304Z,1.83
2022-08-11T07:59:59.961Z,1.70
2022-08-11T08:02:52.518Z,1.70
2022-08-11T08:05:38.792Z,1.77
2022-08-11T08:08:26.703Z,1.77
2022-08-11T08:11:14.940Z,1.60
2022-08-11T08:14:02.074Z,1.70
2022-08-11T08:16:49.828Z,1.85
2022-08-11T08:19:20.891Z,1.75
2022-08-11T08:21:49.757Z,1.70
2022-08-11T08:24:20.278Z,1.83
2022-08-11T08:27:02.038Z,1.65
2022-08-11T08:29:52.636Z,1.73
2022-08-11T08:32:21.995Z,1.38
2022-08-11T08:34:54.429Z,1.60
2022-08-11T08:37:47.213Z,1.48
2022-08-11T08:40:17.725Z,1.60
2022-08-11T08:42:57.242Z,1.90
2022-08-11T08:45:27.515Z,1.77
2022-08-11T08:48:03.733Z,1.73
2022-08-11T08:50:55.849Z,1.63
2022-08-11T08:53:33.086Z,1.60
2022-08-11T08:56:02.279Z,1.60
2022-08-11T08:58:31.339Z,1.48
2022-08-11T09:01:00.979Z,1.50
2022-08-11T09:04:04.923Z,1.50
2022-08-11T09:06:17.509Z,1.70
2022-08-11T09:08:46.313Z,1.60
2022-08-11T09:11:35.196Z,1.58
2022-08-11T09:14:06.459Z,1.60
2022-08-11T09:16:39.563Z,1.40
2022-08-11T09:19:08.565Z,1.50
2022-08-11T09:21:48.337Z,1.50
2022-08-11T09:24:38.242Z,1.48
2022-08-11T09:27:10.719Z,1.50
2022-08-11T09:29:38.811Z,1.48
2022-08-11T09:32:07.438Z,1.50
2022-08-11T09:34:37.512Z,1.50
2022-08-11T09:37:28.453Z,1.40
2022-08-11T09:40:29.616Z,1.40
2022-08-11T09:43:23.597Z,1.50
2022-08-11T09:45:54.181Z,1.38
2022-08-11T09:48:23.970Z,1.65
2022-08-11T09:50:54.353Z,1.60
2022-08-11T09:56:39.507Z,1.42
2022-08-11T09:59:07.841Z,1.55
2022-08-11T10:01:49.377Z,1.52
2022-08-11T10:04:20.905Z,1.60
2022-08-11T10:07:05.646Z,1.50
2022-08-11T10:09:38.873Z,1.30
2022-08-11T10:12:11.378Z,1.40
2022-08-11T10:15:02.557Z,1.45
2022-08-11T10:17:34.391Z,1.40
2022-08-11T10:20:05.939Z,1.30
2022-08-11T10:22:53.535Z,1.20
2022-08-11T10:25:40.494Z,1.50
2022-08-11T10:28:28.223Z,1.50
2022-08-11T10:31:16.834Z,1.48
2022-08-11T10:34:01.461Z,1.45
2022-08-11T10:36:31.474Z,1.50
2022-08-11T10:39:00.539Z,1.40
2022-08-11T10:42:08.474Z,1.60
2022-08-11T10:44:55.084Z,1.60
2022-08-11T10:47:35.622Z,1.50
2022-08-11T10:50:32.570Z,1.50
2022-08-11T10:53:19.833Z,1.40
2022-08-11T10:56:06.801Z,1.52
2022-08-11T10:58:52.169Z,1.42
2022-08-11T11:01:28.635Z,1.40
2022-08-11T11:04:02.245Z,1.55
2022-08-11T11:07:04.415Z,1.60
2022-08-11T11:09:42.110Z,1.65
2022-08-11T11:12:35.004Z,1.60
2022-08-11T11:15:23.829Z,1.60
2022-08-11T11:18:09.731Z,1.42
2022-08-11T11:21:00.413Z,1.83
2022-08-11T11:23:33.578Z,1.55
2022-08-11T11:26:32.850Z,1.65
2022-08-11T11:29:12.135Z,1.60
2022-08-11T11:32:18.150Z,1.55
2022-08-11T11:35:16.219Z,1.70
2022-08-11T11:37:56.084Z,1.60
2022-08-11T11:40:37.409Z,1.70
2022-08-11T11:43:05.951Z,1.60
2022-08-11T11:45:33.551Z,1.67
2022-08-11T11:48:02.402Z,1.70
2022-08-11T11:50:32.774Z,1.83
2022-08-11T11:53:03.829Z,1.63
2022-08-11T11:55:31.821Z,1.50
2022-08-11T11:58:20.476Z,1.73
2022-08-11T12:01:09.649Z,1.67
2022-08-11T12:03:38.222Z,1.58
2022-08-11T12:06:07.213Z,1.75
2022-08-11T12:08:35.733Z,1.63
2022-08-11T12:11:25.283Z,1.77
2022-08-11T12:13:54.739Z,1.63
2022-08-11T12:16:35.461Z,1.70
2022-08-11T12:19:15.930Z,1.63
2022-08-11T12:22:02.851Z,1.80
2022-08-11T12:24:50.182Z,2.00
2022-08-11T12:27:25.211Z,1.65
2022-08-11T12:30:00.808Z,1.45
2022-08-11T12:32:30.926Z,1.73
2022-08-11T12:34:58.537Z,1.80
2022-08-11T12:37:49.838Z,1.63
2022-08-11T12:41:11.954Z,1.50
2022-08-11T12:43:56.705Z,1.60
2022-08-11T12:46:33.490Z,1.77
2022-08-11T12:49:27.538Z,1.90
2022-08-11T12:52:06.815Z,1.50
2022-08-11T12:55:00.221Z,1.77
2022-08-11T12:57:50.827Z,1.80
2022-08-11T13:00:38.188Z,1.75
2022-08-11T13:03:27.197Z,1.70
2022-08-11T13:05:57.468Z,1.60
2022-08-11T13:11:13.031Z,1.60
2022-08-11T13:13:54.906Z,1.50
2022-08-11T13:16:31.955Z,1.50
2022-08-11T13:19:01.359Z,1.83
2022-08-11T13:21:29.685Z,1.70
2022-08-11T13:23:59.923Z,1.58
2022-08-11T13:26:43.302Z,1.77
2022-08-11T13:29:25.622Z,1.58
2022-08-11T13:32:00.295Z,1.88
2022-08-11T13:34:29.134Z,1.70
2022-08-11T13:37:00.581Z,1.63
2022-08-11T13:39:30.806Z,1.50
2022-08-11T13:44:31.514Z,1.48
2022-08-11T13:47:04.898Z,1.70
2022-08-11T13:49:36.139Z,1.80
2022-08-11T13:52:13.160Z,1.70
2022-08-11T13:54:42.716Z,1.70
2022-08-11T13:57:13.592Z,1.80
2022-08-11T14:00:13.276Z,1.63
2022-08-11T14:02:56.001Z,1.48
2022-08-11T14:05:27.193Z,1.50
2022-08-11T14:08:01.614Z,1.70
2022-08-11T14:10:31.444Z,1.60
2022-08-11T14:13:27.214Z,1.60
2022-08-11T14:15:57.476Z,1.70
2022-08-11T14:21:17.643Z,1.50
2022-08-11T14:23:50.940Z,1.60
2022-08-11T14:26:38.886Z,1.20
2022-08-11T14:29:15.286Z,1.60
2022-08-11T14:32:02.720Z,1.60
2022-08-11T14:34:32.177Z,1.75
2022-08-11T14:37:29.432Z,1.70
2022-08-11T14:40:04.028Z,1.48
2022-08-11T14:42:50.380Z,1.60
2022-08-11T14:45:54.364Z,1.60
2022-08-11T14:48:26.474Z,1.70
2022-08-11T14:50:54.004Z,1.48
2022-08-11T14:53:23.663Z,1.63
2022-08-11T14:56:10.961Z,1.48
2022-08-11T14:58:40.224Z,1.67
2022-08-11T15:01:27.869Z,1.70
2022-08-11T15:04:33.987Z,1.38
2022-08-11T15:06:43.455Z,1.50
2022-08-11T15:09:10.742Z,1.17
2022-08-11T15:11:56.626Z,1.60
2022-08-11T15:14:43.501Z,1.70
2022-08-11T15:17:13.291Z,1.40
2022-08-11T15:20:02.266Z,1.60
2022-08-11T15:22:48.948Z,1.65
2022-08-11T15:25:16.342Z,1.90
2022-08-11T15:28:05.350Z,1.70
2022-08-11T15:30:51.438Z,1.60
2022-08-11T15:33:39.159Z,1.48
2022-08-11T15:36:27.776Z,1.60
2022-08-11T15:39:01.159Z,1.38
2022-08-11T15:42:00.371Z,1.35
2022-08-11T15:45:03.302Z,1.60
2022-08-11T15:47:58.435Z,1.45
2022-08-11T15:50:36.763Z,1.40
2022-08-11T15:53:12.242Z,1.50
2022-08-11T15:55:40.778Z,1.40
2022-08-11T15:58:28.316Z,1.60
2022-08-11T16:01:15.710Z,1.60
2022-08-11T16:04:12.836Z,1.50
2022-08-11T16:06:58.204Z,1.60
2022-08-11T16:09:57.035Z,1.42
2022-08-11T16:12:31.067Z,1.73
2022-08-11T16:15:22.783Z,1.63
2022-08-11T16:17:54.428Z,1.70
2022-08-11T16:20:24.971Z,1.67
2022-08-11T16:23:01.944Z,1.40
2022-08-11T16:27:01.642Z,1.63
2022-08-11T16:28:22.577Z,1.30
2022-08-11T16:30:51.373Z,1.65
2022-08-11T16:33:48.428Z,1.45
2022-08-11T16:36:28.603Z,1.45
2022-08-11T16:38:57.269Z,1.40
2022-08-11T16:41:46.662Z,2.10
2022-08-11T16:44:37.546Z,1.70
2022-08-11T16:47:14.300Z,1.40
2022-08-11T16:49:52.736Z,1.33
2022-08-11T16:52:23.075Z,1.27
2022-08-11T16:54:52.580Z,1.20
2022-08-11T16:57:45.761Z,1.50
2022-08-11T17:00:16.534Z,1.50
2022-08-11T17:03:11.103Z,1.45
2022-08-11T17:06:03.796Z,1.33
2022-08-11T17:09:06.904Z,2.05
2022-08-11T17:12:00.778Z,1.50
2022-08-11T17:14:49.988Z,1.60
2022-08-11T17:17:28.984Z,1.85
2022-08-11T17:20:41.017Z,1.50
2022-08-11T17:23:13.285Z,1.48
2022-08-11T17:25:59.886Z,1.70
2022-08-11T17:28:31.019Z,1.73
2022-08-11T17:31:22.188Z,1.55
2022-08-11T17:34:10.673Z,1.60
2022-08-11T17:36:44.501Z,1.90
2022-08-11T17:39:13.822Z,1.88
2022-08-11T17:42:01.153Z,1.90
2022-08-11T17:44:48.606Z,2.10
2022-08-11T17:47:36.945Z,2.30
2022-08-11T17:50:09.185Z,2.20
2022-08-11T17:53:05.595Z,2.30
2022-08-11T17:55:54.669Z,2.30
2022-08-11T17:58:42.322Z,2.17
2022-08-11T18:01:11.354Z,2.38
2022-08-11T18:03:41.781Z,2.40
2022-08-11T18:06:33.922Z,2.22
2022-08-11T18:09:29.688Z,2.33
2022-08-11T18:12:17.972Z,2.58
2022-08-11T18:15:07.068Z,2.40
2022-08-11T18:17:54.952Z,2.03
2022-08-11T18:20:42.324Z,2.33
2022-08-11T18:23:41.943Z,2.40
2022-08-11T18:26:42.479Z,2.20
2022-08-11T18:29:30.440Z,2.10
2022-08-11T18:32:46.184Z,2.10
2022-08-11T18:35:35.801Z,2.00
2022-08-11T18:38:22.852Z,2.00
2022-08-11T18:41:09.730Z,1.90
2022-08-11T18:44:01.408Z,2.10
2022-08-11T18:46:54.144Z,1.73
2022-08-11T18:50:01.724Z,1.92
2022-08-11T18:52:50.988Z,1.70
2022-08-11T18:55:38.743Z,1.98
2022-08-11T18:58:29.287Z,1.80
2022-08-11T19:01:18.655Z,1.90
2022-08-11T19:04:10.658Z,2.00
2022-08-11T19:06:58.915Z,1.58
2022-08-11T19:09:47.251Z,1.90
2022-08-11T19:12:34.616Z,1.75
2022-08-11T19:15:21.710Z,2.08
2022-08-11T19:18:08.561Z,1.80
2022-08-11T19:20:55.155Z,1.85
2022-08-11T19:23:52.489Z,1.60
2022-08-11T19:26:39.196Z,1.50
2022-08-11T19:30:04.781Z,1.67
2022-08-11T19:32:34.631Z,1.75
2022-08-11T19:35:21.312Z,1.80
2022-08-11T19:38:08.034Z,1.52
2022-08-11T19:40:56.587Z,1.40
2022-08-11T19:43:45.241Z,1.50
2022-08-11T19:46:31.740Z,1.40
2022-08-11T19:49:19.162Z,1.48
2022-08-11T19:52:05.795Z,1.67
2022-08-11T19:54:53.844Z,1.70
2022-08-11T19:57:42.045Z,1.63
2022-08-11T20:00:39.734Z,1.60
2022-08-11T20:03:28.979Z,1.60
2022-08-11T20:06:21.020Z,1.70
2022-08-11T20:09:08.936Z,1.52
2022-08-11T20:11:59.744Z,1.70
2022-08-11T20:14:49.846Z,1.50
2022-08-11T20:17:36.715Z,1.40
2022-08-11T20:20:26.288Z,1.58
2022-08-11T20:23:16.587Z,1.58
2022-08-11T20:26:14.400Z,1.42
2022-08-11T20:29:10.761Z,1.52
2022-08-11T20:31:57.417Z,1.60
2022-08-11T20:34:44.270Z,1.40
2022-08-11T20:37:30.938Z,1.60
2022-08-11T20:40:23.882Z,1.50
2022-08-11T20:43:15.907Z,1.58
2022-08-11T20:46:16.676Z,1.60
2022-08-11T20:49:03.490Z,1.80
2022-08-11T20:51:52.972Z,1.70
2022-08-11T20:54:43.771Z,1.40
2022-08-11T20:57:50.454Z,1.60
2022-08-11T21:00:39.210Z,1.50
2022-08-11T21:03:35.647Z,1.60
2022-08-11T21:06:31.192Z,1.50
2022-08-11T21:09:20.437Z,1.52
2022-08-11T21:12:08.114Z,1.58
2022-08-11T21:15:00.096Z,1.40
2022-08-11T21:18:00.402Z,1.38
2022-08-11T21:20:55.483Z,1.50
2022-08-11T21:23:43.559Z,1.58
2022-08-11T21:26:34.343Z,1.70
2022-08-11T21:29:21.242Z,1.50
2022-08-11T21:32:08.090Z,1.48
2022-08-11T21:34:55.122Z,1.70
2022-08-11T21:37:42.384Z,1.33
2022-08-11T21:40:30.245Z,1.55
2022-08-11T21:43:18.048Z,1.45
2022-08-11T21:46:06.025Z,1.40
2022-08-11T21:48:53.202Z,1.50
2022-08-11T21:51:39.126Z,1.30
2022-08-11T21:54:30.835Z,1.42
2022-08-11T21:57:18.149Z,1.50
2022-08-11T22:00:18.146Z,1.50
2022-08-11T22:03:07.404Z,1.40
2022-08-11T22:05:55.770Z,1.25
2022-08-11T22:08:41.384Z,1.40
2022-08-11T22:11:32.080Z,1.60
2022-08-11T22:14:20.198Z,1.50
2022-08-11T22:17:06.269Z,1.40
2022-08-11T22:19:54.908Z,1.50
2022-08-11T22:22:52.170Z,1.27
2022-08-11T22:25:54.255Z,1.40
2022-08-11T22:28:41.337Z,1.73
2022-08-11T22:31:29.080Z,1.52
2022-08-11T22:34:14.720Z,1.38
2022-08-11T22:37:02.486Z,1.35
2022-08-11T22:40:01.838Z,1.35
2022-08-11T22:42:52.032Z,1.25
2022-08-11T22:45:39.044Z,1.40
2022-08-11T22:48:26.211Z,1.60
2022-08-11T22:51:13.613Z,1.38
2022-08-11T22:54:01.946Z,1.50
2022-08-11T22:56:49.958Z,1.48
2022-08-11T22:59:37.358Z,1.30
2022-08-11T23:02:26.183Z,1.50
2022-08-11T23:05:12.673Z,1.50
2022-08-11T23:07:59.883Z,1.30
2022-08-11T23:10:46.160Z,1.40
2022-08-11T23:13:32.296Z,1.30
2022-08-11T23:16:19.087Z,1.30
2022-08-11T23:19:05.812Z,1.50
2022-08-11T23:21:53.401Z,1.58
2022-08-11T23:24:40.627Z,1.48
2022-08-11T23:27:28.878Z,1.35
2022-08-11T23:30:18.986Z,1.33
2022-08-11T23:35:56.457Z,1.50
2022-08-11T23:38:45.311Z,1.45
2022-08-11T23:41:33.783Z,1.40
2022-08-11T23:44:24.416Z,1.25
2022-08-11T23:47:13.875Z,1.42
2022-08-11T23:50:00.355Z,1.30
2022-08-11T23:52:48.366Z,1.30
2022-08-11T23:55:39.108Z,1.58
2022-08-11T23:58:26.059Z,1.50
